sensor_id;sensor_type;location;lat;lon;timestamp;P1;durP1;ratioP1;P2;durP2;ratioP2
27800;SDS011;15181;49.112;11.930;2022-11-12T00:02:08;31.60;;;28.20;;
27800;SDS011;15181;49.112;11.930;2022-11-12T00:04:35;26.67;;;23.80;;
27800;SDS011;15181;49.112;11.930;2022-11-12T00:07:02;24.55;;;22.67;;
27800;SDS011;15181;49.112;11.930;2022-11-12T00:09:29;25.67;;;23.27;;
27800;SDS011;15181;49.112;11.930;2022-11-12T00:11:58;24.77;;;23.08;;
27800;SDS011;15181;49.112;11.930;2022-11-12T00:14:25;45.70;;;24.00;;
27800;SDS011;15181;49.112;11.930;2022-11-12T00:16:52;24.85;;;22.60;;
27800;SDS011;15181;49.112;11.930;2022-11-12T00:19:19;24.75;;;22.75;;
27800;SDS011;15181;49.112;11.930;2022-11-12T00:21:46;160.77;;;38.25;;
27800;SDS011;15181;49.112;11.930;2022-11-12T00:24:13;58.67;;;25.55;;
27800;SDS011;15181;49.112;11.930;2022-11-12T00:26:40;30.73;;;23.20;;
27800;SDS011;15181;49.112;11.930;2022-11-12T00:29:09;98.78;;;28.80;;
27800;SDS011;15181;49.112;11.930;2022-11-12T00:31:36;173.45;;;39.60;;
27800;SDS011;15181;49.112;11.930;2022-11-12T00:34:03;206.27;;;65.97;;
27800;SDS011;15181;49.112;11.930;2022-11-12T00:36:30;33.33;;;30.75;;
27800;SDS011;15181;49.112;11.930;2022-11-12T00:38:57;26.90;;;24.80;;
27800;SDS011;15181;49.112;11.930;2022-11-12T00:41:24;25.48;;;23.58;;
27800;SDS011;15181;49.112;11.930;2022-11-12T00:43:52;25.05;;;23.15;;
27800;SDS011;15181;49.112;11.930;2022-11-12T00:46:20;24.15;;;22.10;;
27800;SDS011;15181;49.112;11.930;2022-11-12T00:48:47;51.17;;;23.67;;
27800;SDS011;15181;49.112;11.930;2022-11-12T00:51:14;23.52;;;21.15;;
27800;SDS011;15181;49.112;11.930;2022-11-12T00:53:42;150.98;;;29.75;;
27800;SDS011;15181;49.112;11.930;2022-11-12T00:56:12;107.80;;;28.10;;
27800;SDS011;15181;49.112;11.930;2022-11-12T00:58:39;149.52;;;34.33;;
27800;SDS011;15181;49.112;11.930;2022-11-12T01:01:06;96.40;;;31.35;;
27800;SDS011;15181;49.112;11.930;2022-11-12T01:03:37;80.10;;;42.10;;
27800;SDS011;15181;49.112;11.930;2022-11-12T01:06:06;93.40;;;30.13;;
27800;SDS011;15181;49.112;11.930;2022-11-12T01:08:35;83.93;;;26.90;;
27800;SDS011;15181;49.112;11.930;2022-11-12T01:11:07;104.78;;;29.27;;
27800;SDS011;15181;49.112;11.930;2022-11-12T01:13:36;128.38;;;35.08;;
27800;SDS011;15181;49.112;11.930;2022-11-12T01:16:04;29.25;;;26.13;;
27800;SDS011;15181;49.112;11.930;2022-11-12T01:18:32;31.17;;;27.25;;
27800;SDS011;15181;49.112;11.930;2022-11-12T01:21:00;59.28;;;26.30;;
27800;SDS011;15181;49.112;11.930;2022-11-12T01:23:28;25.25;;;23.10;;
27800;SDS011;15181;49.112;11.930;2022-11-12T01:25:57;25.40;;;22.80;;
27800;SDS011;15181;49.112;11.930;2022-11-12T01:28:28;24.90;;;22.35;;
27800;SDS011;15181;49.112;11.930;2022-11-12T01:30:55;24.13;;;21.50;;
27800;SDS011;15181;49.112;11.930;2022-11-12T01:33:22;37.20;;;22.25;;
27800;SDS011;15181;49.112;11.930;2022-11-12T01:35:50;24.33;;;22.52;;
27800;SDS011;15181;49.112;11.930;2022-11-12T01:38:18;33.67;;;21.98;;
27800;SDS011;15181;49.112;11.930;2022-11-12T01:40:45;90.35;;;26.73;;
27800;SDS011;15181;49.112;11.930;2022-11-12T01:43:13;98.10;;;27.10;;
27800;SDS011;15181;49.112;11.930;2022-11-12T01:45:40;140.57;;;38.15;;
27800;SDS011;15181;49.112;11.930;2022-11-12T01:48:11;26.83;;;21.30;;
27800;SDS011;15181;49.112;11.930;2022-11-12T01:50:50;22.35;;;20.52;;
27800;SDS011;15181;49.112;11.930;2022-11-12T01:53:19;28.38;;;21.33;;
27800;SDS011;15181;49.112;11.930;2022-11-12T01:55:51;21.65;;;19.98;;
27800;SDS011;15181;49.112;11.930;2022-11-12T01:58:19;30.42;;;22.00;;
27800;SDS011;15181;49.112;11.930;2022-11-12T02:00:50;138.48;;;31.40;;
27800;SDS011;15181;49.112;11.930;2022-11-12T02:03:18;32.50;;;21.27;;
27800;SDS011;15181;49.112;11.930;2022-11-12T02:05:48;22.48;;;20.30;;
27800;SDS011;15181;49.112;11.930;2022-11-12T02:08:23;22.65;;;20.77;;
27800;SDS011;15181;49.112;11.930;2022-11-12T02:10:52;95.82;;;26.42;;
27800;SDS011;15181;49.112;11.930;2022-11-12T02:13:19;24.33;;;22.08;;
27800;SDS011;15181;49.112;11.930;2022-11-12T02:16:05;79.43;;;25.40;;
27800;SDS011;15181;49.112;11.930;2022-11-12T02:18:34;66.38;;;25.35;;
27800;SDS011;15181;49.112;11.930;2022-11-12T02:21:02;90.63;;;28.63;;
27800;SDS011;15181;49.112;11.930;2022-11-12T02:23:34;226.57;;;37.10;;
27800;SDS011;15181;49.112;11.930;2022-11-12T02:26:03;24.17;;;22.30;;
27800;SDS011;15181;49.112;11.930;2022-11-12T02:28:32;23.15;;;21.42;;
27800;SDS011;15181;49.112;11.930;2022-11-12T02:30:59;23.10;;;21.48;;
27800;SDS011;15181;49.112;11.930;2022-11-12T02:33:26;26.10;;;21.40;;
27800;SDS011;15181;49.112;11.930;2022-11-12T02:35:53;38.25;;;23.55;;
27800;SDS011;15181;49.112;11.930;2022-11-12T02:38:20;35.95;;;23.45;;
27800;SDS011;15181;49.112;11.930;2022-11-12T02:40:50;96.28;;;29.58;;
27800;SDS011;15181;49.112;11.930;2022-11-12T02:43:17;55.20;;;23.88;;
27800;SDS011;15181;49.112;11.930;2022-11-12T02:45:44;85.95;;;28.33;;
27800;SDS011;15181;49.112;11.930;2022-11-12T02:48:11;110.22;;;28.77;;
27800;SDS011;15181;49.112;11.930;2022-11-12T02:50:38;63.67;;;25.83;;
27800;SDS011;15181;49.112;11.930;2022-11-12T02:53:05;61.03;;;28.38;;
27800;SDS011;15181;49.112;11.930;2022-11-12T02:55:32;31.85;;;22.60;;
27800;SDS011;15181;49.112;11.930;2022-11-12T02:58:01;24.42;;;21.63;;
27800;SDS011;15181;49.112;11.930;2022-11-12T03:00:28;40.03;;;24.75;;
27800;SDS011;15181;49.112;11.930;2022-11-12T03:02:55;22.45;;;20.92;;
27800;SDS011;15181;49.112;11.930;2022-11-12T03:05:25;22.15;;;20.50;;
27800;SDS011;15181;49.112;11.930;2022-11-12T03:07:55;20.75;;;19.45;;
27800;SDS011;15181;49.112;11.930;2022-11-12T03:10:23;20.33;;;18.92;;
27800;SDS011;15181;49.112;11.930;2022-11-12T03:12:50;21.38;;;19.52;;
27800;SDS011;15181;49.112;11.930;2022-11-12T03:15:19;26.10;;;20.00;;
27800;SDS011;15181;49.112;11.930;2022-11-12T03:17:46;21.38;;;19.98;;
27800;SDS011;15181;49.112;11.930;2022-11-12T03:20:13;50.33;;;23.77;;
27800;SDS011;15181;49.112;11.930;2022-11-12T03:22:41;21.98;;;20.30;;
27800;SDS011;15181;49.112;11.930;2022-11-12T03:25:08;82.85;;;27.73;;
27800;SDS011;15181;49.112;11.930;2022-11-12T03:27:35;161.50;;;31.10;;
27800;SDS011;15181;49.112;11.930;2022-11-12T03:30:02;68.57;;;23.65;;
27800;SDS011;15181;49.112;11.930;2022-11-12T03:32:31;27.23;;;20.27;;
27800;SDS011;15181;49.112;11.930;2022-11-12T03:34:58;40.03;;;21.10;;
27800;SDS011;15181;49.112;11.930;2022-11-12T03:37:27;22.35;;;20.45;;
27800;SDS011;15181;49.112;11.930;2022-11-12T03:39:55;21.60;;;19.88;;
27800;SDS011;15181;49.112;11.930;2022-11-12T03:42:22;82.50;;;24.38;;
27800;SDS011;15181;49.112;11.930;2022-11-12T03:44:49;92.07;;;26.08;;
27800;SDS011;15181;49.112;11.930;2022-11-12T03:47:16;134.13;;;30.38;;
27800;SDS011;15181;49.112;11.930;2022-11-12T03:49:45;20.95;;;19.45;;
27800;SDS011;15181;49.112;11.930;2022-11-12T03:52:12;22.95;;;20.92;;
27800;SDS011;15181;49.112;11.930;2022-11-12T03:54:39;20.92;;;19.52;;
27800;SDS011;15181;49.112;11.930;2022-11-12T03:57:06;20.40;;;19.10;;
27800;SDS011;15181;49.112;11.930;2022-11-12T03:59:33;21.63;;;19.92;;
27800;SDS011;15181;49.112;11.930;2022-11-12T04:02:01;20.25;;;18.80;;
27800;SDS011;15181;49.112;11.930;2022-11-12T04:04:27;78.05;;;24.23;;
27800;SDS011;15181;49.112;11.930;2022-11-12T04:07:16;33.45;;;21.33;;
27800;SDS011;15181;49.112;11.930;2022-11-12T04:10:00;22.60;;;20.40;;
27800;SDS011;15181;49.112;11.930;2022-11-12T04:12:27;20.75;;;19.27;;
27800;SDS011;15181;49.112;11.930;2022-11-12T04:15:11;21.35;;;19.70;;
27800;SDS011;15181;49.112;11.930;2022-11-12T04:17:38;74.20;;;23.83;;
27800;SDS011;15181;49.112;11.930;2022-11-12T04:20:22;82.10;;;24.25;;
27800;SDS011;15181;49.112;11.930;2022-11-12T04:23:08;37.20;;;21.25;;
27800;SDS011;15181;49.112;11.930;2022-11-12T04:25:35;40.55;;;22.38;;
27800;SDS011;15181;49.112;11.930;2022-11-12T04:28:25;70.32;;;25.75;;
27800;SDS011;15181;49.112;11.930;2022-11-12T04:30:52;21.77;;;19.40;;
27800;SDS011;15181;49.112;11.930;2022-11-12T04:33:18;84.20;;;23.98;;
27800;SDS011;15181;49.112;11.930;2022-11-12T04:35:45;87.45;;;27.08;;
27800;SDS011;15181;49.112;11.930;2022-11-12T04:38:14;21.98;;;19.88;;
27800;SDS011;15181;49.112;11.930;2022-11-12T04:40:41;33.20;;;21.23;;
27800;SDS011;15181;49.112;11.930;2022-11-12T04:43:25;36.72;;;21.50;;
27800;SDS011;15181;49.112;11.930;2022-11-12T04:46:10;32.60;;;21.73;;
27800;SDS011;15181;49.112;11.930;2022-11-12T04:48:37;23.45;;;20.63;;
27800;SDS011;15181;49.112;11.930;2022-11-12T04:51:04;69.82;;;23.42;;
27800;SDS011;15181;49.112;11.930;2022-11-12T04:53:54;20.15;;;18.75;;
27800;SDS011;15181;49.112;11.930;2022-11-12T04:56:21;23.95;;;21.23;;
27800;SDS011;15181;49.112;11.930;2022-11-12T04:58:48;22.27;;;19.88;;
27800;SDS011;15181;49.112;11.930;2022-11-12T05:01:15;35.25;;;21.30;;
27800;SDS011;15181;49.112;11.930;2022-11-12T05:03:42;23.00;;;20.67;;
27800;SDS011;15181;49.112;11.930;2022-11-12T05:06:09;20.88;;;19.45;;
27800;SDS011;15181;49.112;11.930;2022-11-12T05:08:49;21.88;;;19.88;;
27800;SDS011;15181;49.112;11.930;2022-11-12T05:11:18;20.48;;;18.45;;
27800;SDS011;15181;49.112;11.930;2022-11-12T05:13:46;20.27;;;18.08;;
27800;SDS011;15181;49.112;11.930;2022-11-12T05:16:13;18.80;;;17.50;;
27800;SDS011;15181;49.112;11.930;2022-11-12T05:18:40;18.80;;;17.60;;
27800;SDS011;15181;49.112;11.930;2022-11-12T05:21:07;18.90;;;17.63;;
27800;SDS011;15181;49.112;11.930;2022-11-12T05:23:48;47.30;;;21.50;;
27800;SDS011;15181;49.112;11.930;2022-11-12T05:26:15;111.45;;;26.42;;
27800;SDS011;15181;49.112;11.930;2022-11-12T05:28:43;24.25;;;19.63;;
27800;SDS011;15181;49.112;11.930;2022-11-12T05:31:11;40.90;;;21.25;;
27800;SDS011;15181;49.112;11.930;2022-11-12T05:33:37;53.50;;;21.33;;
27800;SDS011;15181;49.112;11.930;2022-11-12T05:36:05;20.15;;;18.85;;
27800;SDS011;15181;49.112;11.930;2022-11-12T05:38:32;37.05;;;20.80;;
27800;SDS011;15181;49.112;11.930;2022-11-12T05:40:59;20.05;;;18.73;;
27800;SDS011;15181;49.112;11.930;2022-11-12T05:43:26;19.27;;;18.05;;
27800;SDS011;15181;49.112;11.930;2022-11-12T05:45:55;18.90;;;17.15;;
27800;SDS011;15181;49.112;11.930;2022-11-12T05:48:23;22.45;;;19.10;;
27800;SDS011;15181;49.112;11.930;2022-11-12T05:50:50;79.20;;;23.13;;
27800;SDS011;15181;49.112;11.930;2022-11-12T05:53:18;92.45;;;24.48;;
27800;SDS011;15181;49.112;11.930;2022-11-12T05:55:45;31.88;;;19.23;;
27800;SDS011;15181;49.112;11.930;2022-11-12T05:58:12;64.63;;;24.75;;
27800;SDS011;15181;49.112;11.930;2022-11-12T06:00:39;48.67;;;20.73;;
27800;SDS011;15181;49.112;11.930;2022-11-12T06:03:08;78.32;;;25.13;;
27800;SDS011;15181;49.112;11.930;2022-11-12T06:05:36;106.45;;;26.50;;
27800;SDS011;15181;49.112;11.930;2022-11-12T06:08:04;158.98;;;30.05;;
27800;SDS011;15181;49.112;11.930;2022-11-12T06:10:32;20.42;;;18.65;;
27800;SDS011;15181;49.112;11.930;2022-11-12T06:12:59;164.65;;;30.38;;
27800;SDS011;15181;49.112;11.930;2022-11-12T06:15:26;173.40;;;33.47;;
27800;SDS011;15181;49.112;11.930;2022-11-12T06:17:53;90.28;;;25.70;;
27800;SDS011;15181;49.112;11.930;2022-11-12T06:20:22;176.48;;;33.58;;
27800;SDS011;15181;49.112;11.930;2022-11-12T06:22:50;78.65;;;24.60;;
27800;SDS011;15181;49.112;11.930;2022-11-12T06:25:17;61.95;;;23.48;;
27800;SDS011;15181;49.112;11.930;2022-11-12T06:27:44;152.82;;;26.67;;
27800;SDS011;15181;49.112;11.930;2022-11-12T06:30:11;82.53;;;24.27;;
27800;SDS011;15181;49.112;11.930;2022-11-12T06:32:39;249.93;;;40.38;;
27800;SDS011;15181;49.112;11.930;2022-11-12T06:35:06;255.07;;;37.65;;
27800;SDS011;15181;49.112;11.930;2022-11-12T06:37:35;238.32;;;37.00;;
27800;SDS011;15181;49.112;11.930;2022-11-12T06:40:03;230.50;;;38.42;;
27800;SDS011;15181;49.112;11.930;2022-11-12T06:42:31;286.98;;;40.38;;
27800;SDS011;15181;49.112;11.930;2022-11-12T06:44:58;154.38;;;31.88;;
27800;SDS011;15181;49.112;11.930;2022-11-12T06:47:25;176.90;;;31.25;;
27800;SDS011;15181;49.112;11.930;2022-11-12T06:49:52;176.90;;;29.88;;
27800;SDS011;15181;49.112;11.930;2022-11-12T06:52:19;57.15;;;21.30;;
27800;SDS011;15181;49.112;11.930;2022-11-12T06:54:48;46.95;;;20.98;;
27800;SDS011;15181;49.112;11.930;2022-11-12T06:57:15;157.00;;;29.02;;
27800;SDS011;15181;49.112;11.930;2022-11-12T06:59:42;158.55;;;29.05;;
27800;SDS011;15181;49.112;11.930;2022-11-12T07:02:10;80.97;;;23.50;;
27800;SDS011;15181;49.112;11.930;2022-11-12T07:04:37;56.58;;;20.85;;
27800;SDS011;15181;49.112;11.930;2022-11-12T07:07:04;20.00;;;17.88;;
27800;SDS011;15181;49.112;11.930;2022-11-12T07:09:32;20.55;;;17.02;;
27800;SDS011;15181;49.112;11.930;2022-11-12T07:12:01;19.45;;;18.02;;
27800;SDS011;15181;49.112;11.930;2022-11-12T07:14:28;141.38;;;27.23;;
27800;SDS011;15181;49.112;11.930;2022-11-12T07:16:55;60.53;;;21.42;;
27800;SDS011;15181;49.112;11.930;2022-11-12T07:19:22;146.10;;;28.23;;
27800;SDS011;15181;49.112;11.930;2022-11-12T07:21:49;151.90;;;29.30;;
27800;SDS011;15181;49.112;11.930;2022-11-12T07:24:16;47.85;;;21.00;;
27800;SDS011;15181;49.112;11.930;2022-11-12T07:26:43;87.18;;;23.05;;
27800;SDS011;15181;49.112;11.930;2022-11-12T07:29:12;69.47;;;20.25;;
27800;SDS011;15181;49.112;11.930;2022-11-12T07:31:39;26.75;;;17.23;;
27800;SDS011;15181;49.112;11.930;2022-11-12T07:34:06;16.48;;;15.57;;
27800;SDS011;15181;49.112;11.930;2022-11-12T07:36:33;16.45;;;15.43;;
27800;SDS011;15181;49.112;11.930;2022-11-12T07:39:00;28.88;;;16.80;;
27800;SDS011;15181;49.112;11.930;2022-11-12T07:41:27;133.00;;;25.40;;
27800;SDS011;15181;49.112;11.930;2022-11-12T07:43:55;89.65;;;20.67;;
27800;SDS011;15181;49.112;11.930;2022-11-12T07:46:24;95.22;;;22.63;;
27800;SDS011;15181;49.112;11.930;2022-11-12T07:48:52;123.40;;;25.08;;
27800;SDS011;15181;49.112;11.930;2022-11-12T07:51:22;210.85;;;29.65;;
27800;SDS011;15181;49.112;11.930;2022-11-12T07:53:51;189.25;;;28.88;;
27800;SDS011;15181;49.112;11.930;2022-11-12T07:56:20;175.27;;;32.75;;
27800;SDS011;15181;49.112;11.930;2022-11-12T07:58:50;25.63;;;20.20;;
27800;SDS011;15181;49.112;11.930;2022-11-12T08:01:21;21.90;;;20.02;;
27800;SDS011;15181;49.112;11.930;2022-11-12T08:03:54;17.95;;;16.50;;
27800;SDS011;15181;49.112;11.930;2022-11-12T08:06:21;84.65;;;20.23;;
27800;SDS011;15181;49.112;11.930;2022-11-12T08:08:50;101.80;;;22.88;;
27800;SDS011;15181;49.112;11.930;2022-11-12T08:11:19;17.63;;;15.98;;
27800;SDS011;15181;49.112;11.930;2022-11-12T08:13:48;48.17;;;17.73;;
27800;SDS011;15181;49.112;11.930;2022-11-12T08:16:15;72.18;;;20.40;;
27800;SDS011;15181;49.112;11.930;2022-11-12T08:18:45;17.48;;;15.95;;
27800;SDS011;15181;49.112;11.930;2022-11-12T08:21:13;17.55;;;16.08;;
27800;SDS011;15181;49.112;11.930;2022-11-12T08:23:41;17.90;;;16.60;;
27800;SDS011;15181;49.112;11.930;2022-11-12T08:26:10;18.08;;;16.67;;
27800;SDS011;15181;49.112;11.930;2022-11-12T08:28:38;18.02;;;16.83;;
27800;SDS011;15181;49.112;11.930;2022-11-12T08:31:06;24.73;;;17.65;;
27800;SDS011;15181;49.112;11.930;2022-11-12T08:33:34;18.20;;;16.67;;
27800;SDS011;15181;49.112;11.930;2022-11-12T08:36:03;68.25;;;23.45;;
27800;SDS011;15181;49.112;11.930;2022-11-12T08:38:32;19.40;;;17.83;;
27800;SDS011;15181;49.112;11.930;2022-11-12T08:40:59;16.92;;;15.93;;
27800;SDS011;15181;49.112;11.930;2022-11-12T08:43:26;17.70;;;16.55;;
27800;SDS011;15181;49.112;11.930;2022-11-12T08:45:53;54.70;;;20.20;;
27800;SDS011;15181;49.112;11.930;2022-11-12T08:48:23;92.32;;;21.50;;
27800;SDS011;15181;49.112;11.930;2022-11-12T08:50:51;18.27;;;16.83;;
27800;SDS011;15181;49.112;11.930;2022-11-12T08:53:21;18.60;;;17.35;;
27800;SDS011;15181;49.112;11.930;2022-11-12T08:55:51;16.88;;;15.85;;
27800;SDS011;15181;49.112;11.930;2022-11-12T08:58:19;17.80;;;16.38;;
27800;SDS011;15181;49.112;11.930;2022-11-12T09:00:46;81.32;;;21.95;;
27800;SDS011;15181;49.112;11.930;2022-11-12T09:03:15;17.10;;;16.10;;
27800;SDS011;15181;49.112;11.930;2022-11-12T09:05:44;27.98;;;18.50;;
27800;SDS011;15181;49.112;11.930;2022-11-12T09:08:12;27.35;;;16.90;;
27800;SDS011;15181;49.112;11.930;2022-11-12T09:10:43;18.02;;;16.65;;
27800;SDS011;15181;49.112;11.930;2022-11-12T09:13:10;19.23;;;16.98;;
27800;SDS011;15181;49.112;11.930;2022-11-12T09:15:39;27.15;;;17.25;;
27800;SDS011;15181;49.112;11.930;2022-11-12T09:18:09;30.65;;;18.30;;
27800;SDS011;15181;49.112;11.930;2022-11-12T09:20:37;23.20;;;16.63;;
27800;SDS011;15181;49.112;11.930;2022-11-12T09:23:05;25.52;;;17.60;;
27800;SDS011;15181;49.112;11.930;2022-11-12T09:25:37;18.90;;;16.88;;
27800;SDS011;15181;49.112;11.930;2022-11-12T09:28:07;18.27;;;16.75;;
27800;SDS011;15181;49.112;11.930;2022-11-12T09:30:36;18.45;;;17.30;;
27800;SDS011;15181;49.112;11.930;2022-11-12T09:33:03;22.35;;;17.88;;
27800;SDS011;15181;49.112;11.930;2022-11-12T09:35:30;57.50;;;20.80;;
27800;SDS011;15181;49.112;11.930;2022-11-12T09:37:58;20.90;;;18.25;;
27800;SDS011;15181;49.112;11.930;2022-11-12T09:40:30;24.60;;;18.33;;
27800;SDS011;15181;49.112;11.930;2022-11-12T09:43:10;29.33;;;18.30;;
27800;SDS011;15181;49.112;11.930;2022-11-12T09:45:44;29.65;;;26.75;;
27800;SDS011;15181;49.112;11.930;2022-11-12T09:48:14;108.25;;;26.77;;
27800;SDS011;15181;49.112;11.930;2022-11-12T09:50:48;19.27;;;17.77;;
27800;SDS011;15181;49.112;11.930;2022-11-12T09:53:21;19.27;;;17.98;;
27800;SDS011;15181;49.112;11.930;2022-11-12T09:55:56;18.50;;;17.40;;
27800;SDS011;15181;49.112;11.930;2022-11-12T09:58:24;19.35;;;18.05;;
27800;SDS011;15181;49.112;11.930;2022-11-12T10:00:54;19.83;;;18.13;;
27800;SDS011;15181;49.112;11.930;2022-11-12T10:03:29;18.90;;;17.77;;
27800;SDS011;15181;49.112;11.930;2022-11-12T10:06:04;18.40;;;17.30;;
27800;SDS011;15181;49.112;11.930;2022-11-12T10:08:38;18.33;;;17.23;;
27800;SDS011;15181;49.112;11.930;2022-11-12T10:11:19;33.65;;;18.35;;
27800;SDS011;15181;49.112;11.930;2022-11-12T10:14:22;18.35;;;17.25;;
27800;SDS011;15181;49.112;11.930;2022-11-12T10:17:08;18.77;;;17.58;;
27800;SDS011;15181;49.112;11.930;2022-11-12T10:19:56;19.35;;;18.10;;
27800;SDS011;15181;49.112;11.930;2022-11-12T10:25:24;18.98;;;17.88;;
27800;SDS011;15181;49.112;11.930;2022-11-12T10:27:53;19.52;;;18.23;;
27800;SDS011;15181;49.112;11.930;2022-11-12T10:30:23;20.08;;;18.88;;
27800;SDS011;15181;49.112;11.930;2022-11-12T10:32:51;20.58;;;19.27;;
27800;SDS011;15181;49.112;11.930;2022-11-12T10:35:20;20.05;;;18.85;;
27800;SDS011;15181;49.112;11.930;2022-11-12T10:37:50;20.25;;;19.05;;
27800;SDS011;15181;49.112;11.930;2022-11-12T10:40:25;20.83;;;19.52;;
27800;SDS011;15181;49.112;11.930;2022-11-12T10:42:55;21.42;;;20.13;;
27800;SDS011;15181;49.112;11.930;2022-11-12T10:45:25;20.73;;;19.42;;
27800;SDS011;15181;49.112;11.930;2022-11-12T10:47:52;20.50;;;19.20;;
27800;SDS011;15181;49.112;11.930;2022-11-12T10:50:20;20.75;;;19.45;;
27800;SDS011;15181;49.112;11.930;2022-11-12T10:52:54;21.77;;;20.38;;
27800;SDS011;15181;49.112;11.930;2022-11-12T10:55:23;21.50;;;20.20;;
27800;SDS011;15181;49.112;11.930;2022-11-12T11:03:43;21.10;;;19.77;;
27800;SDS011;15181;49.112;11.930;2022-11-12T11:06:18;20.38;;;19.08;;
27800;SDS011;15181;49.112;11.930;2022-11-12T11:11:18;21.95;;;20.45;;
27800;SDS011;15181;49.112;11.930;2022-11-12T11:13:50;22.55;;;20.95;;
27800;SDS011;15181;49.112;11.930;2022-11-12T11:16:22;22.02;;;20.48;;
27800;SDS011;15181;49.112;11.930;2022-11-12T11:18:51;25.95;;;23.95;;
27800;SDS011;15181;49.112;11.930;2022-11-12T11:24:30;22.38;;;20.90;;
27800;SDS011;15181;49.112;11.930;2022-11-12T11:27:08;22.52;;;20.95;;
27800;SDS011;15181;49.112;11.930;2022-11-12T11:32:32;22.27;;;20.77;;
27800;SDS011;15181;49.112;11.930;2022-11-12T11:37:52;22.15;;;20.55;;
27800;SDS011;15181;49.112;11.930;2022-11-12T11:40:33;22.00;;;20.50;;
27800;SDS011;15181;49.112;11.930;2022-11-12T11:43:10;21.63;;;20.23;;
27800;SDS011;15181;49.112;11.930;2022-11-12T11:45:55;22.20;;;20.80;;
27800;SDS011;15181;49.112;11.930;2022-11-12T11:48:37;22.13;;;20.63;;
27800;SDS011;15181;49.112;11.930;2022-11-12T11:51:16;21.73;;;20.20;;
27800;SDS011;15181;49.112;11.930;2022-11-12T11:53:55;21.15;;;19.73;;
27800;SDS011;15181;49.112;11.930;2022-11-12T11:56:33;21.30;;;19.90;;
27800;SDS011;15181;49.112;11.930;2022-11-12T11:59:07;21.20;;;19.70;;
27800;SDS011;15181;49.112;11.930;2022-11-12T12:01:51;20.70;;;19.40;;
27800;SDS011;15181;49.112;11.930;2022-11-12T12:04:36;20.38;;;19.08;;
27800;SDS011;15181;49.112;11.930;2022-11-12T12:07:13;21.48;;;20.00;;
27800;SDS011;15181;49.112;11.930;2022-11-12T12:09:47;21.13;;;19.75;;
27800;SDS011;15181;49.112;11.930;2022-11-12T12:12:24;21.70;;;20.23;;
27800;SDS011;15181;49.112;11.930;2022-11-12T12:15:03;21.00;;;19.65;;
27800;SDS011;15181;49.112;11.930;2022-11-12T12:17:50;22.52;;;21.05;;
27800;SDS011;15181;49.112;11.930;2022-11-12T12:20:28;22.90;;;21.50;;
27800;SDS011;15181;49.112;11.930;2022-11-12T12:23:05;23.35;;;21.75;;
27800;SDS011;15181;49.112;11.930;2022-11-12T12:25:39;22.52;;;21.13;;
27800;SDS011;15181;49.112;11.930;2022-11-12T12:28:11;23.17;;;21.67;;
27800;SDS011;15181;49.112;11.930;2022-11-12T12:30:52;23.73;;;22.13;;
27800;SDS011;15181;49.112;11.930;2022-11-12T12:33:27;22.95;;;21.35;;
27800;SDS011;15181;49.112;11.930;2022-11-12T12:35:59;23.55;;;21.95;;
27800;SDS011;15181;49.112;11.930;2022-11-12T12:38:32;23.35;;;21.85;;
27800;SDS011;15181;49.112;11.930;2022-11-12T12:41:08;22.52;;;21.13;;
27800;SDS011;15181;49.112;11.930;2022-11-12T12:43:43;23.23;;;21.83;;
27800;SDS011;15181;49.112;11.930;2022-11-12T12:46:13;22.75;;;21.35;;
27800;SDS011;15181;49.112;11.930;2022-11-12T12:48:42;22.40;;;21.02;;
27800;SDS011;15181;49.112;11.930;2022-11-12T12:51:13;22.80;;;21.23;;
27800;SDS011;15181;49.112;11.930;2022-11-12T12:53:40;23.27;;;21.67;;
27800;SDS011;15181;49.112;11.930;2022-11-12T12:56:41;28.70;;;26.50;;
27800;SDS011;15181;49.112;11.930;2022-11-12T12:59:21;22.13;;;20.50;;
27800;SDS011;15181;49.112;11.930;2022-11-12T13:01:56;21.48;;;20.15;;
27800;SDS011;15181;49.112;11.930;2022-11-12T13:07:17;21.70;;;20.15;;
27800;SDS011;15181;49.112;11.930;2022-11-12T13:09:47;21.63;;;20.30;;
27800;SDS011;15181;49.112;11.930;2022-11-12T13:12:15;21.92;;;20.52;;
27800;SDS011;15181;49.112;11.930;2022-11-12T13:14:53;21.65;;;20.35;;
27800;SDS011;15181;49.112;11.930;2022-11-12T13:17:40;21.80;;;20.40;;
27800;SDS011;15181;49.112;11.930;2022-11-12T13:23:11;22.33;;;20.92;;
27800;SDS011;15181;49.112;11.930;2022-11-12T13:26:41;21.83;;;20.42;;
27800;SDS011;15181;49.112;11.930;2022-11-12T13:29:19;21.33;;;20.00;;
27800;SDS011;15181;49.112;11.930;2022-11-12T13:31:48;20.77;;;19.58;;
27800;SDS011;15181;49.112;11.930;2022-11-12T13:34:35;20.95;;;19.65;;
27800;SDS011;15181;49.112;11.930;2022-11-12T13:37:03;23.13;;;21.52;;
27800;SDS011;15181;49.112;11.930;2022-11-12T13:39:33;25.95;;;24.05;;
27800;SDS011;15181;49.112;11.930;2022-11-12T13:42:08;25.88;;;23.92;;
27800;SDS011;15181;49.112;11.930;2022-11-12T13:45:11;33.08;;;30.17;;
27800;SDS011;15181;49.112;11.930;2022-11-12T13:47:38;32.65;;;29.65;;
27800;SDS011;15181;49.112;11.930;2022-11-12T13:50:06;44.05;;;39.72;;
27800;SDS011;15181;49.112;11.930;2022-11-12T13:52:38;29.77;;;27.58;;
27800;SDS011;15181;49.112;11.930;2022-11-12T13:55:12;51.05;;;45.70;;
27800;SDS011;15181;49.112;11.930;2022-11-12T13:57:40;33.22;;;30.40;;
27800;SDS011;15181;49.112;11.930;2022-11-12T14:00:20;36.42;;;33.80;;
27800;SDS011;15181;49.112;11.930;2022-11-12T14:02:51;29.33;;;27.23;;
27800;SDS011;15181;49.112;11.930;2022-11-12T14:05:21;26.70;;;24.80;;
27800;SDS011;15181;49.112;11.930;2022-11-12T14:07:53;26.05;;;24.25;;
27800;SDS011;15181;49.112;11.930;2022-11-12T14:13:39;25.27;;;23.58;;
27800;SDS011;15181;49.112;11.930;2022-11-12T14:16:21;28.45;;;26.55;;
27800;SDS011;15181;49.112;11.930;2022-11-12T14:19:11;26.60;;;24.80;;
27800;SDS011;15181;49.112;11.930;2022-11-12T14:21:58;26.98;;;25.10;;
27800;SDS011;15181;49.112;11.930;2022-11-12T14:24:26;29.23;;;27.13;;
27800;SDS011;15181;49.112;11.930;2022-11-12T14:26:56;29.13;;;27.20;;
27800;SDS011;15181;49.112;11.930;2022-11-12T14:29:23;27.33;;;25.52;;
27800;SDS011;15181;49.112;11.930;2022-11-12T14:31:58;26.33;;;24.58;;
27800;SDS011;15181;49.112;11.930;2022-11-12T14:34:28;27.60;;;25.80;;
27800;SDS011;15181;49.112;11.930;2022-11-12T14:36:57;27.55;;;25.65;;
27800;SDS011;15181;49.112;11.930;2022-11-12T14:39:25;27.10;;;25.15;;
27800;SDS011;15181;49.112;11.930;2022-11-12T14:41:56;26.48;;;24.50;;
27800;SDS011;15181;49.112;11.930;2022-11-12T14:44:26;27.75;;;25.85;;
27800;SDS011;15181;49.112;11.930;2022-11-12T14:46:58;27.00;;;25.10;;
27800;SDS011;15181;49.112;11.930;2022-11-12T14:49:27;28.48;;;26.45;;
27800;SDS011;15181;49.112;11.930;2022-11-12T14:52:02;27.05;;;25.08;;
27800;SDS011;15181;49.112;11.930;2022-11-12T14:54:35;28.02;;;26.17;;
27800;SDS011;15181;49.112;11.930;2022-11-12T14:57:15;27.20;;;25.35;;
27800;SDS011;15181;49.112;11.930;2022-11-12T14:59:45;26.65;;;24.75;;